sensor_id;sensor_type;location;lat;lon;timestamp;P1;durP1;ratioP1;P2;durP2;ratioP2
68647;SDS011;55632;51.962;16.116;2022-07-10T00:00:28;2.08;;;1.73;;
68647;SDS011;55632;51.962;16.116;2022-07-10T00:05:30;3.72;;;1.77;;
68647;SDS011;55632;51.962;16.116;2022-07-10T00:10:32;3.00;;;1.77;;
68647;SDS011;55632;51.962;16.116;2022-07-10T00:15:35;3.83;;;1.52;;
68647;SDS011;55632;51.962;16.116;2022-07-10T00:20:36;3.30;;;1.92;;
68647;SDS011;55632;51.962;16.116;2022-07-10T00:25:37;6.97;;;2.90;;
68647;SDS011;55632;51.962;16.116;2022-07-10T00:30:38;6.63;;;2.40;;
68647;SDS011;55632;51.962;16.116;2022-07-10T00:35:42;8.48;;;2.72;;
68647;SDS011;55632;51.962;16.116;2022-07-10T00:40:43;3.88;;;1.73;;
68647;SDS011;55632;51.962;16.116;2022-07-10T00:45:43;6.65;;;1.88;;
68647;SDS011;55632;51.962;16.116;2022-07-10T00:50:44;5.95;;;2.30;;
68647;SDS011;55632;51.962;16.116;2022-07-10T00:55:46;3.22;;;1.70;;
68647;SDS011;55632;51.962;16.116;2022-07-10T01:00:47;5.32;;;1.92;;
68647;SDS011;55632;51.962;16.116;2022-07-10T01:05:52;4.57;;;2.38;;
68647;SDS011;55632;51.962;16.116;2022-07-10T01:10:53;5.32;;;1.85;;
68647;SDS011;55632;51.962;16.116;2022-07-10T01:15:55;7.32;;;2.55;;
68647;SDS011;55632;51.962;16.116;2022-07-10T01:20:56;4.00;;;1.83;;
68647;SDS011;55632;51.962;16.116;2022-07-10T01:25:57;5.72;;;2.13;;
68647;SDS011;55632;51.962;16.116;2022-07-10T01:30:58;6.00;;;1.90;;
68647;SDS011;55632;51.962;16.116;2022-07-10T01:35:59;7.72;;;2.13;;
68647;SDS011;55632;51.962;16.116;2022-07-10T01:41:07;6.25;;;1.90;;
68647;SDS011;55632;51.962;16.116;2022-07-10T01:46:08;9.70;;;2.80;;
68647;SDS011;55632;51.962;16.116;2022-07-10T01:51:12;6.00;;;1.92;;
68647;SDS011;55632;51.962;16.116;2022-07-10T01:56:13;7.00;;;2.05;;
68647;SDS011;55632;51.962;16.116;2022-07-10T02:01:17;4.75;;;1.48;;
68647;SDS011;55632;51.962;16.116;2022-07-10T02:06:19;3.08;;;1.40;;
68647;SDS011;55632;51.962;16.116;2022-07-10T02:11:19;4.30;;;1.67;;
68647;SDS011;55632;51.962;16.116;2022-07-10T02:16:20;5.25;;;1.42;;
68647;SDS011;55632;51.962;16.116;2022-07-10T02:21:21;3.75;;;1.30;;
68647;SDS011;55632;51.962;16.116;2022-07-10T02:26:22;4.15;;;1.35;;
68647;SDS011;55632;51.962;16.116;2022-07-10T02:31:23;6.65;;;1.48;;
68647;SDS011;55632;51.962;16.116;2022-07-10T02:36:23;4.40;;;1.45;;
68647;SDS011;55632;51.962;16.116;2022-07-10T02:41:24;4.15;;;1.55;;
68647;SDS011;55632;51.962;16.116;2022-07-10T02:46:25;6.03;;;1.52;;
68647;SDS011;55632;51.962;16.116;2022-07-10T02:51:26;5.60;;;1.52;;
68647;SDS011;55632;51.962;16.116;2022-07-10T02:56:27;5.57;;;1.50;;
68647;SDS011;55632;51.962;16.116;2022-07-10T03:01:28;7.38;;;1.40;;
68647;SDS011;55632;51.962;16.116;2022-07-10T03:06:29;6.43;;;1.92;;
68647;SDS011;55632;51.962;16.116;2022-07-10T03:11:31;6.50;;;1.60;;
68647;SDS011;55632;51.962;16.116;2022-07-10T03:16:35;4.45;;;1.63;;
68647;SDS011;55632;51.962;16.116;2022-07-10T03:21:39;7.93;;;1.63;;
68647;SDS011;55632;51.962;16.116;2022-07-10T03:26:40;3.40;;;1.40;;
68647;SDS011;55632;51.962;16.116;2022-07-10T03:31:41;4.70;;;1.60;;
68647;SDS011;55632;51.962;16.116;2022-07-10T03:36:41;4.10;;;1.45;;
68647;SDS011;55632;51.962;16.116;2022-07-10T03:41:42;5.43;;;1.65;;
68647;SDS011;55632;51.962;16.116;2022-07-10T03:46:43;7.70;;;2.03;;
68647;SDS011;55632;51.962;16.116;2022-07-10T03:51:44;7.72;;;1.58;;
68647;SDS011;55632;51.962;16.116;2022-07-10T03:56:46;5.53;;;1.30;;
68647;SDS011;55632;51.962;16.116;2022-07-10T04:02:05;3.80;;;1.52;;
68647;SDS011;55632;51.962;16.116;2022-07-10T04:07:06;4.90;;;1.45;;
68647;SDS011;55632;51.962;16.116;2022-07-10T04:12:07;7.35;;;1.88;;
68647;SDS011;55632;51.962;16.116;2022-07-10T04:17:08;7.95;;;1.50;;
68647;SDS011;55632;51.962;16.116;2022-07-10T04:22:09;7.57;;;1.63;;
68647;SDS011;55632;51.962;16.116;2022-07-10T04:27:12;3.85;;;1.30;;
68647;SDS011;55632;51.962;16.116;2022-07-10T04:32:13;5.88;;;1.55;;
68647;SDS011;55632;51.962;16.116;2022-07-10T04:37:14;10.02;;;1.67;;
68647;SDS011;55632;51.962;16.116;2022-07-10T04:42:15;9.73;;;1.60;;
68647;SDS011;55632;51.962;16.116;2022-07-10T04:47:16;4.10;;;1.30;;
68647;SDS011;55632;51.962;16.116;2022-07-10T04:52:17;7.22;;;1.27;;
68647;SDS011;55632;51.962;16.116;2022-07-10T04:57:18;5.35;;;1.60;;
68647;SDS011;55632;51.962;16.116;2022-07-10T05:02:19;5.53;;;1.33;;
68647;SDS011;55632;51.962;16.116;2022-07-10T05:07:19;5.38;;;1.30;;
68647;SDS011;55632;51.962;16.116;2022-07-10T05:12:20;7.95;;;1.30;;
68647;SDS011;55632;51.962;16.116;2022-07-10T05:17:21;7.95;;;1.42;;
68647;SDS011;55632;51.962;16.116;2022-07-10T05:22:22;3.92;;;1.15;;
68647;SDS011;55632;51.962;16.116;2022-07-10T05:27:24;3.13;;;1.35;;
68647;SDS011;55632;51.962;16.116;2022-07-10T05:32:25;4.15;;;1.42;;
68647;SDS011;55632;51.962;16.116;2022-07-10T05:37:26;5.53;;;2.65;;
68647;SDS011;55632;51.962;16.116;2022-07-10T05:42:27;2.08;;;1.02;;
68647;SDS011;55632;51.962;16.116;2022-07-10T05:47:28;6.68;;;1.67;;
68647;SDS011;55632;51.962;16.116;2022-07-10T05:52:29;5.72;;;1.40;;
68647;SDS011;55632;51.962;16.116;2022-07-10T05:57:30;4.47;;;1.30;;
68647;SDS011;55632;51.962;16.116;2022-07-10T06:02:34;5.15;;;1.30;;
68647;SDS011;55632;51.962;16.116;2022-07-10T06:07:37;6.10;;;2.10;;
68647;SDS011;55632;51.962;16.116;2022-07-10T06:12:38;3.67;;;1.40;;
68647;SDS011;55632;51.962;16.116;2022-07-10T06:17:38;5.50;;;1.13;;
68647;SDS011;55632;51.962;16.116;2022-07-10T06:22:39;2.08;;;1.20;;
68647;SDS011;55632;51.962;16.116;2022-07-10T06:27:40;8.13;;;1.13;;
68647;SDS011;55632;51.962;16.116;2022-07-10T06:32:41;2.42;;;0.82;;
68647;SDS011;55632;51.962;16.116;2022-07-10T06:37:44;1.95;;;1.13;;
68647;SDS011;55632;51.962;16.116;2022-07-10T06:42:45;5.20;;;1.58;;
68647;SDS011;55632;51.962;16.116;2022-07-10T06:47:47;3.08;;;1.38;;
68647;SDS011;55632;51.962;16.116;2022-07-10T06:52:58;6.55;;;1.20;;
68647;SDS011;55632;51.962;16.116;2022-07-10T06:57:59;2.85;;;1.17;;
68647;SDS011;55632;51.962;16.116;2022-07-10T07:03:00;8.23;;;1.60;;
68647;SDS011;55632;51.962;16.116;2022-07-10T07:08:01;9.93;;;1.67;;
68647;SDS011;55632;51.962;16.116;2022-07-10T07:13:04;3.58;;;1.38;;
68647;SDS011;55632;51.962;16.116;2022-07-10T07:18:05;3.15;;;1.30;;
68647;SDS011;55632;51.962;16.116;2022-07-10T07:23:11;4.25;;;1.20;;
68647;SDS011;55632;51.962;16.116;2022-07-10T07:28:12;2.55;;;1.50;;
68647;SDS011;55632;51.962;16.116;2022-07-10T07:33:17;4.88;;;1.42;;
68647;SDS011;55632;51.962;16.116;2022-07-10T07:38:19;4.07;;;1.40;;
68647;SDS011;55632;51.962;16.116;2022-07-10T07:43:19;7.97;;;1.73;;
68647;SDS011;55632;51.962;16.116;2022-07-10T07:48:20;2.85;;;1.35;;
68647;SDS011;55632;51.962;16.116;2022-07-10T07:53:21;7.85;;;1.80;;
68647;SDS011;55632;51.962;16.116;2022-07-10T07:58:22;5.22;;;1.33;;
68647;SDS011;55632;51.962;16.116;2022-07-10T08:03:23;2.90;;;1.15;;
68647;SDS011;55632;51.962;16.116;2022-07-10T08:08:23;5.20;;;1.27;;
68647;SDS011;55632;51.962;16.116;2022-07-10T08:13:24;3.97;;;1.48;;
68647;SDS011;55632;51.962;16.116;2022-07-10T08:18:29;5.18;;;1.30;;
68647;SDS011;55632;51.962;16.116;2022-07-10T08:23:30;4.15;;;1.20;;
68647;SDS011;55632;51.962;16.116;2022-07-10T08:28:30;3.25;;;0.85;;
68647;SDS011;55632;51.962;16.116;2022-07-10T08:33:31;3.15;;;1.10;;
68647;SDS011;55632;51.962;16.116;2022-07-10T08:38:35;5.28;;;0.95;;
68647;SDS011;55632;51.962;16.116;2022-07-10T08:43:36;3.35;;;0.80;;
68647;SDS011;55632;51.962;16.116;2022-07-10T08:48:37;2.03;;;0.80;;
68647;SDS011;55632;51.962;16.116;2022-07-10T08:53:41;3.05;;;1.00;;
68647;SDS011;55632;51.962;16.116;2022-07-10T08:58:43;3.00;;;0.90;;
68647;SDS011;55632;51.962;16.116;2022-07-10T09:03:44;2.90;;;1.40;;
68647;SDS011;55632;51.962;16.116;2022-07-10T09:08:58;3.03;;;1.05;;
68647;SDS011;55632;51.962;16.116;2022-07-10T09:14:03;5.38;;;1.45;;
68647;SDS011;55632;51.962;16.116;2022-07-10T09:19:38;3.58;;;1.35;;
68647;SDS011;55632;51.962;16.116;2022-07-10T09:24:38;4.75;;;1.27;;
68647;SDS011;55632;51.962;16.116;2022-07-10T09:29:52;5.85;;;1.63;;
68647;SDS011;55632;51.962;16.116;2022-07-10T09:34:58;8.02;;;1.45;;
68647;SDS011;55632;51.962;16.116;2022-07-10T09:40:18;7.13;;;1.07;;
68647;SDS011;55632;51.962;16.116;2022-07-10T09:45:19;3.33;;;1.27;;
68647;SDS011;55632;51.962;16.116;2022-07-10T09:55:27;8.02;;;1.70;;
68647;SDS011;55632;51.962;16.116;2022-07-10T10:00:34;4.22;;;1.13;;
68647;SDS011;55632;51.962;16.116;2022-07-10T10:10:52;3.13;;;1.10;;
68647;SDS011;55632;51.962;16.116;2022-07-10T10:15:56;7.85;;;1.40;;
68647;SDS011;55632;51.962;16.116;2022-07-10T10:21:01;3.42;;;1.40;;
68647;SDS011;55632;51.962;16.116;2022-07-10T10:26:02;7.47;;;1.50;;
68647;SDS011;55632;51.962;16.116;2022-07-10T10:31:03;5.53;;;1.55;;
68647;SDS011;55632;51.962;16.116;2022-07-10T10:36:04;5.38;;;1.50;;
68647;SDS011;55632;51.962;16.116;2022-07-10T10:41:22;4.13;;;1.60;;
68647;SDS011;55632;51.962;16.116;2022-07-10T10:46:32;4.43;;;1.33;;
68647;SDS011;55632;51.962;16.116;2022-07-10T10:57:14;3.47;;;1.67;;
68647;SDS011;55632;51.962;16.116;2022-07-10T11:18:03;5.00;;;1.40;;
68647;SDS011;55632;51.962;16.116;2022-07-10T11:29:03;7.57;;;2.50;;
68647;SDS011;55632;51.962;16.116;2022-07-10T11:34:06;7.75;;;2.15;;
68647;SDS011;55632;51.962;16.116;2022-07-10T11:39:08;4.18;;;1.50;;
68647;SDS011;55632;51.962;16.116;2022-07-10T11:44:13;6.82;;;1.50;;
68647;SDS011;55632;51.962;16.116;2022-07-10T11:49:18;5.97;;;1.42;;
68647;SDS011;55632;51.962;16.116;2022-07-10T11:54:24;8.43;;;2.45;;
68647;SDS011;55632;51.962;16.116;2022-07-10T11:59:28;7.35;;;1.55;;
68647;SDS011;55632;51.962;16.116;2022-07-10T12:04:29;8.75;;;1.80;;
68647;SDS011;55632;51.962;16.116;2022-07-10T12:09:31;5.15;;;1.40;;
68647;SDS011;55632;51.962;16.116;2022-07-10T12:14:36;6.97;;;1.50;;
68647;SDS011;55632;51.962;16.116;2022-07-10T12:19:38;3.65;;;1.20;;
68647;SDS011;55632;51.962;16.116;2022-07-10T12:24:40;3.72;;;1.52;;
68647;SDS011;55632;51.962;16.116;2022-07-10T12:29:41;6.57;;;2.10;;
68647;SDS011;55632;51.962;16.116;2022-07-10T12:34:42;5.45;;;1.60;;
68647;SDS011;55632;51.962;16.116;2022-07-10T12:39:48;3.38;;;1.30;;
68647;SDS011;55632;51.962;16.116;2022-07-10T12:44:51;6.57;;;1.80;;
68647;SDS011;55632;51.962;16.116;2022-07-10T12:49:56;2.60;;;1.17;;
68647;SDS011;55632;51.962;16.116;2022-07-10T12:55:08;4.90;;;1.20;;
68647;SDS011;55632;51.962;16.116;2022-07-10T13:00:11;4.97;;;2.05;;
68647;SDS011;55632;51.962;16.116;2022-07-10T13:05:24;5.30;;;2.03;;
68647;SDS011;55632;51.962;16.116;2022-07-10T13:10:41;5.10;;;1.33;;
68647;SDS011;55632;51.962;16.116;2022-07-10T13:15:44;7.07;;;1.40;;
68647;SDS011;55632;51.962;16.116;2022-07-10T13:20:53;7.43;;;2.85;;
68647;SDS011;55632;51.962;16.116;2022-07-10T13:25:56;4.15;;;1.20;;
68647;SDS011;55632;51.962;16.116;2022-07-10T13:31:03;3.17;;;1.23;;
68647;SDS011;55632;51.962;16.116;2022-07-10T13:36:04;3.55;;;1.45;;
68647;SDS011;55632;51.962;16.116;2022-07-10T13:41:10;8.10;;;1.95;;
68647;SDS011;55632;51.962;16.116;2022-07-10T13:46:13;4.65;;;1.70;;
68647;SDS011;55632;51.962;16.116;2022-07-10T13:51:17;4.47;;;1.63;;
68647;SDS011;55632;51.962;16.116;2022-07-10T13:56:18;7.45;;;1.73;;
68647;SDS011;55632;51.962;16.116;2022-07-10T14:01:19;5.38;;;2.30;;
68647;SDS011;55632;51.962;16.116;2022-07-10T14:06:23;5.00;;;1.55;;
68647;SDS011;55632;51.962;16.116;2022-07-10T14:11:24;4.07;;;1.70;;
68647;SDS011;55632;51.962;16.116;2022-07-10T14:16:31;5.45;;;1.65;;
68647;SDS011;55632;51.962;16.116;2022-07-10T14:21:32;4.68;;;1.50;;
68647;SDS011;55632;51.962;16.116;2022-07-10T14:26:33;5.07;;;1.42;;
68647;SDS011;55632;51.962;16.116;2022-07-10T14:42:49;8.05;;;2.30;;
68647;SDS011;55632;51.962;16.116;2022-07-10T14:47:50;5.15;;;1.38;;
68647;SDS011;55632;51.962;16.116;2022-07-10T14:52:59;3.95;;;1.73;;
68647;SDS011;55632;51.962;16.116;2022-07-10T14:58:00;3.92;;;1.60;;
68647;SDS011;55632;51.962;16.116;2022-07-10T15:03:04;4.88;;;2.20;;
68647;SDS011;55632;51.962;16.116;2022-07-10T15:08:05;5.10;;;1.58;;
68647;SDS011;55632;51.962;16.116;2022-07-10T15:13:07;6.50;;;1.75;;
68647;SDS011;55632;51.962;16.116;2022-07-10T15:18:15;5.85;;;1.85;;
68647;SDS011;55632;51.962;16.116;2022-07-10T15:23:18;5.45;;;1.48;;
68647;SDS011;55632;51.962;16.116;2022-07-10T15:28:19;12.82;;;2.35;;
68647;SDS011;55632;51.962;16.116;2022-07-10T15:33:20;16.80;;;9.05;;
68647;SDS011;55632;51.962;16.116;2022-07-10T15:38:21;5.38;;;1.83;;
68647;SDS011;55632;51.962;16.116;2022-07-10T15:43:25;10.93;;;6.22;;
68647;SDS011;55632;51.962;16.116;2022-07-10T15:48:28;5.15;;;2.40;;
68647;SDS011;55632;51.962;16.116;2022-07-10T15:53:30;10.50;;;8.40;;
68647;SDS011;55632;51.962;16.116;2022-07-10T15:58:34;6.13;;;2.60;;
68647;SDS011;55632;51.962;16.116;2022-07-10T16:03:39;19.42;;;10.40;;
68647;SDS011;55632;51.962;16.116;2022-07-10T16:08:47;53.78;;;27.70;;
68647;SDS011;55632;51.962;16.116;2022-07-10T16:13:49;18.58;;;6.75;;
68647;SDS011;55632;51.962;16.116;2022-07-10T16:18:50;18.58;;;8.93;;
68647;SDS011;55632;51.962;16.116;2022-07-10T16:23:55;13.02;;;8.10;;
68647;SDS011;55632;51.962;16.116;2022-07-10T16:29:00;26.55;;;13.48;;
68647;SDS011;55632;51.962;16.116;2022-07-10T16:34:02;9.18;;;4.13;;
68647;SDS011;55632;51.962;16.116;2022-07-10T16:39:03;8.63;;;3.00;;
68647;SDS011;55632;51.962;16.116;2022-07-10T16:44:04;10.13;;;2.58;;
68647;SDS011;55632;51.962;16.116;2022-07-10T16:49:05;7.63;;;2.75;;
68647;SDS011;55632;51.962;16.116;2022-07-10T16:54:11;20.08;;;6.43;;
68647;SDS011;55632;51.962;16.116;2022-07-10T16:59:14;20.35;;;9.00;;
68647;SDS011;55632;51.962;16.116;2022-07-10T17:04:16;8.10;;;2.75;;
68647;SDS011;55632;51.962;16.116;2022-07-10T17:09:39;6.38;;;1.77;;
68647;SDS011;55632;51.962;16.116;2022-07-10T17:14:40;8.23;;;2.47;;
68647;SDS011;55632;51.962;16.116;2022-07-10T17:19:40;12.32;;;5.65;;
68647;SDS011;55632;51.962;16.116;2022-07-10T17:24:42;6.82;;;3.70;;
68647;SDS011;55632;51.962;16.116;2022-07-10T17:29:44;9.38;;;3.33;;
68647;SDS011;55632;51.962;16.116;2022-07-10T17:34:45;8.70;;;4.57;;
68647;SDS011;55632;51.962;16.116;2022-07-10T17:39:49;8.43;;;3.05;;
68647;SDS011;55632;51.962;16.116;2022-07-10T17:44:52;8.75;;;5.93;;
68647;SDS011;55632;51.962;16.116;2022-07-10T17:49:55;4.88;;;1.92;;
68647;SDS011;55632;51.962;16.116;2022-07-10T17:54:57;5.60;;;1.90;;
68647;SDS011;55632;51.962;16.116;2022-07-10T17:59:57;21.20;;;5.47;;
68647;SDS011;55632;51.962;16.116;2022-07-10T18:04:58;32.97;;;8.38;;
68647;SDS011;55632;51.962;16.116;2022-07-10T18:09:59;24.33;;;7.38;;
68647;SDS011;55632;51.962;16.116;2022-07-10T18:15:00;12.43;;;4.75;;
68647;SDS011;55632;51.962;16.116;2022-07-10T18:20:01;39.58;;;12.20;;
68647;SDS011;55632;51.962;16.116;2022-07-10T18:25:02;52.72;;;19.15;;
68647;SDS011;55632;51.962;16.116;2022-07-10T18:30:04;22.55;;;7.18;;
68647;SDS011;55632;51.962;16.116;2022-07-10T18:35:05;16.17;;;5.88;;
68647;SDS011;55632;51.962;16.116;2022-07-10T18:40:07;6.53;;;2.38;;
68647;SDS011;55632;51.962;16.116;2022-07-10T18:45:08;9.57;;;2.70;;
68647;SDS011;55632;51.962;16.116;2022-07-10T18:50:12;14.13;;;4.97;;
68647;SDS011;55632;51.962;16.116;2022-07-10T18:55:14;7.60;;;2.90;;
68647;SDS011;55632;51.962;16.116;2022-07-10T19:00:18;6.63;;;2.83;;
68647;SDS011;55632;51.962;16.116;2022-07-10T19:05:19;10.38;;;3.55;;
68647;SDS011;55632;51.962;16.116;2022-07-10T19:10:20;10.95;;;4.35;;
68647;SDS011;55632;51.962;16.116;2022-07-10T19:15:21;7.65;;;2.88;;
68647;SDS011;55632;51.962;16.116;2022-07-10T19:20:22;8.52;;;2.97;;
68647;SDS011;55632;51.962;16.116;2022-07-10T19:25:23;9.02;;;3.72;;
68647;SDS011;55632;51.962;16.116;2022-07-10T19:30:27;12.27;;;5.25;;
68647;SDS011;55632;51.962;16.116;2022-07-10T19:35:28;5.93;;;3.50;;
68647;SDS011;55632;51.962;16.116;2022-07-10T19:40:29;8.63;;;3.40;;
68647;SDS011;55632;51.962;16.116;2022-07-10T19:45:30;9.68;;;4.30;;
68647;SDS011;55632;51.962;16.116;2022-07-10T19:50:31;3.28;;;1.40;;
68647;SDS011;55632;51.962;16.116;2022-07-10T19:55:33;6.50;;;1.98;;
68647;SDS011;55632;51.962;16.116;2022-07-10T20:00:36;5.28;;;1.20;;
68647;SDS011;55632;51.962;16.116;2022-07-10T20:05:37;5.80;;;1.63;;
68647;SDS011;55632;51.962;16.116;2022-07-10T20:10:39;3.90;;;1.55;;
68647;SDS011;55632;51.962;16.116;2022-07-10T20:15:40;3.38;;;1.20;;
68647;SDS011;55632;51.962;16.116;2022-07-10T20:20:44;3.33;;;1.08;;
68647;SDS011;55632;51.962;16.116;2022-07-10T20:25:47;8.52;;;1.80;;
68647;SDS011;55632;51.962;16.116;2022-07-10T20:30:48;3.55;;;1.38;;
68647;SDS011;55632;51.962;16.116;2022-07-10T20:35:52;4.07;;;1.83;;
68647;SDS011;55632;51.962;16.116;2022-07-10T20:41:17;6.47;;;1.55;;
68647;SDS011;55632;51.962;16.116;2022-07-10T20:46:19;4.28;;;1.40;;
68647;SDS011;55632;51.962;16.116;2022-07-10T20:51:20;2.83;;;0.90;;
68647;SDS011;55632;51.962;16.116;2022-07-10T20:56:21;6.55;;;1.40;;
68647;SDS011;55632;51.962;16.116;2022-07-10T21:01:22;3.08;;;1.20;;
68647;SDS011;55632;51.962;16.116;2022-07-10T21:06:23;2.15;;;1.17;;
68647;SDS011;55632;51.962;16.116;2022-07-10T21:11:24;2.33;;;0.90;;
68647;SDS011;55632;51.962;16.116;2022-07-10T21:16:25;1.50;;;0.77;;
68647;SDS011;55632;51.962;16.116;2022-07-10T21:21:26;2.35;;;1.05;;
68647;SDS011;55632;51.962;16.116;2022-07-10T21:26:27;1.45;;;1.35;;
68647;SDS011;55632;51.962;16.116;2022-07-10T21:31:32;3.20;;;1.08;;
68647;SDS011;55632;51.962;16.116;2022-07-10T21:36:32;3.08;;;1.10;;
68647;SDS011;55632;51.962;16.116;2022-07-10T21:41:33;3.30;;;1.30;;
68647;SDS011;55632;51.962;16.116;2022-07-10T21:46:35;1.88;;;0.93;;
68647;SDS011;55632;51.962;16.116;2022-07-10T21:51:36;3.55;;;0.93;;
68647;SDS011;55632;51.962;16.116;2022-07-10T21:56:36;3.45;;;1.10;;
68647;SDS011;55632;51.962;16.116;2022-07-10T22:01:37;2.47;;;1.00;;
68647;SDS011;55632;51.962;16.116;2022-07-10T22:06:38;2.15;;;1.00;;
68647;SDS011;55632;51.962;16.116;2022-07-10T22:11:39;2.63;;;0.90;;
68647;SDS011;55632;51.962;16.116;2022-07-10T22:16:40;2.50;;;0.95;;
68647;SDS011;55632;51.962;16.116;2022-07-10T22:21:41;2.25;;;1.13;;
68647;SDS011;55632;51.962;16.116;2022-07-10T22:26:42;4.82;;;1.77;;
68647;SDS011;55632;51.962;16.116;2022-07-10T22:31:43;4.40;;;1.20;;
68647;SDS011;55632;51.962;16.116;2022-07-10T22:36:44;3.40;;;1.08;;
68647;SDS011;55632;51.962;16.116;2022-07-10T22:41:45;2.55;;;1.42;;
68647;SDS011;55632;51.962;16.116;2022-07-10T22:46:46;2.90;;;1.30;;
68647;SDS011;55632;51.962;16.116;2022-07-10T22:51:47;3.45;;;1.30;;
68647;SDS011;55632;51.962;16.116;2022-07-10T22:56:48;2.80;;;1.20;;
68647;SDS011;55632;51.962;16.116;2022-07-10T23:01:49;2.72;;;1.00;;
68647;SDS011;55632;51.962;16.116;2022-07-10T23:06:50;4.10;;;1.33;;
68647;SDS011;55632;51.962;16.116;2022-07-10T23:11:51;2.28;;;1.05;;
68647;SDS011;55632;51.962;16.116;2022-07-10T23:16:52;2.85;;;1.17;;
68647;SDS011;55632;51.962;16.116;2022-07-10T23:21:55;9.60;;;1.52;;
68647;SDS011;55632;51.962;16.116;2022-07-10T23:26:56;3.90;;;1.38;;
68647;SDS011;55632;51.962;16.116;2022-07-10T23:31:57;4.43;;;1.48;;
68647;SDS011;55632;51.962;16.116;2022-07-10T23:36:58;6.15;;;1.60;;
68647;SDS011;55632;51.962;16.116;2022-07-10T23:41:59;9.52;;;2.22;;
68647;SDS011;55632;51.962;16.116;2022-07-10T23:47:00;5.97;;;2.20;;
68647;SDS011;55632;51.962;16.116;2022-07-10T23:52:01;3.30;;;1.50;;
68647;SDS011;55632;51.962;16.116;2022-07-10T23:57:02;6.25;;;2.10;;
